createdAt,value
2023-01-21T00:01:04.598Z,87.58
2023-01-21T00:03:32.739Z,87.47
2023-01-21T00:05:59.595Z,86.92
2023-01-21T00:08:27.227Z,87.82
2023-01-21T00:10:54.908Z,87.73
2023-01-21T00:13:22.163Z,87.34
2023-01-21T00:15:49.397Z,87.65
2023-01-21T00:18:16.429Z,87.57
2023-01-21T00:20:45.356Z,87.23
2023-01-21T00:23:12.845Z,88.16
2023-01-21T00:25:39.684Z,88.23
2023-01-21T00:28:06.498Z,87.96
2023-01-21T00:30:33.462Z,88.03
2023-01-21T00:33:00.287Z,87.46
2023-01-21T00:35:27.149Z,87.47
2023-01-21T00:37:54.207Z,87.21
2023-01-21T00:40:21.545Z,87.31
2023-01-21T00:42:48.653Z,87.01
2023-01-21T00:45:15.513Z,87.01
2023-01-21T00:47:42.386Z,87.12
2023-01-21T00:50:10.281Z,87.32
2023-01-21T00:52:37.138Z,86.98
2023-01-21T00:55:05.257Z,87.11
2023-01-21T00:57:32.107Z,87.69
2023-01-21T00:59:59.132Z,88.66
2023-01-21T01:02:25.900Z,88.28
2023-01-21T01:04:52.684Z,88.42
2023-01-21T01:07:19.464Z,88.97
2023-01-21T01:09:46.366Z,89.21
2023-01-21T01:12:13.140Z,89.62
2023-01-21T01:14:40.034Z,89.62
2023-01-21T01:17:06.768Z,89.53
2023-01-21T01:19:33.664Z,89.78
2023-01-21T01:22:00.432Z,89.39
2023-01-21T01:24:27.305Z,89.06
2023-01-21T01:26:54.175Z,88.63
2023-01-21T01:29:20.966Z,88.09
2023-01-21T01:31:47.816Z,87.08
2023-01-21T01:34:14.711Z,88.00
2023-01-21T01:36:41.509Z,88.79
2023-01-21T01:39:08.345Z,89.05
2023-01-21T01:41:36.182Z,89.14
2023-01-21T01:44:45.126Z,89.09
2023-01-21T01:47:13.819Z,89.19
2023-01-21T01:49:41.754Z,89.01
2023-01-21T01:52:10.512Z,89.67
2023-01-21T01:54:44.252Z,90.03
2023-01-21T01:57:14.106Z,89.60
2023-01-21T01:59:42.685Z,90.02
2023-01-21T02:02:18.064Z,90.02
2023-01-21T02:04:51.234Z,89.99
2023-01-21T02:07:20.090Z,89.52
2023-01-21T02:09:46.963Z,89.18
2023-01-21T02:12:14.037Z,88.96
2023-01-21T02:14:43.116Z,89.14
2023-01-21T02:17:31.523Z,89.16
2023-01-21T02:20:28.613Z,89.74
2023-01-21T02:23:20.127Z,90.21
2023-01-21T02:26:37.691Z,90.01
2023-01-21T02:29:52.259Z,88.76
2023-01-21T02:33:09.390Z,88.88
2023-01-21T02:36:13.317Z,87.80
2023-01-21T02:39:04.074Z,89.02
2023-01-21T02:41:55.522Z,89.13
2023-01-21T02:44:33.852Z,89.42
2023-01-21T02:47:29.502Z,89.18
2023-01-21T02:50:10.857Z,89.14
2023-01-21T02:52:37.639Z,88.88
2023-01-21T02:55:04.871Z,89.21
2023-01-21T02:57:52.485Z,88.95
2023-01-21T03:00:26.650Z,88.59
2023-01-21T03:03:27.303Z,89.22
2023-01-21T03:06:39.317Z,90.82
2023-01-21T03:09:28.455Z,90.60
2023-01-21T03:12:38.052Z,90.73
2023-01-21T03:15:33.592Z,90.99
2023-01-21T03:18:16.600Z,91.08
2023-01-21T03:21:05.275Z,91.63
2023-01-21T03:23:39.376Z,91.76
2023-01-21T03:26:09.618Z,91.43
2023-01-21T03:28:44.988Z,90.44
2023-01-21T03:31:39.499Z,89.75
2023-01-21T03:34:10.396Z,88.68
2023-01-21T03:36:58.088Z,88.18
2023-01-21T03:40:02.673Z,88.21
2023-01-21T03:42:29.911Z,87.82
2023-01-21T03:44:57.329Z,87.90
2023-01-21T03:47:50.409Z,87.52
2023-01-21T03:50:23.785Z,87.71
2023-01-21T03:52:50.762Z,87.29
2023-01-21T03:55:20.051Z,87.60
2023-01-21T03:57:46.894Z,88.80
2023-01-21T04:00:14.202Z,88.07
2023-01-21T04:02:41.340Z,89.01
2023-01-21T04:05:08.737Z,88.90
2023-01-21T04:07:35.536Z,88.94
2023-01-21T04:10:02.356Z,89.25
2023-01-21T04:12:29.235Z,89.04
2023-01-21T04:14:56.125Z,88.79
2023-01-21T04:17:22.890Z,88.45
2023-01-21T04:19:49.688Z,88.54
2023-01-21T04:22:16.487Z,88.81
2023-01-21T04:24:43.343Z,88.89
2023-01-21T04:27:10.160Z,88.32
2023-01-21T04:29:36.923Z,87.90
2023-01-21T04:32:04.286Z,87.40
2023-01-21T04:34:31.132Z,87.74
2023-01-21T04:36:57.938Z,87.65
2023-01-21T04:39:24.671Z,87.36
2023-01-21T04:41:51.520Z,88.21
2023-01-21T04:44:18.377Z,87.27
2023-01-21T04:46:45.212Z,87.45
2023-01-21T04:49:12.052Z,86.96
2023-01-21T04:51:38.826Z,86.96
2023-01-21T04:54:05.645Z,88.16
2023-01-21T04:56:32.486Z,87.94
2023-01-21T04:58:59.329Z,87.20
2023-01-21T05:01:26.249Z,87.84
2023-01-21T05:03:53.067Z,87.48
2023-01-21T05:06:19.875Z,88.31
2023-01-21T05:08:46.668Z,87.80
2023-01-21T05:11:18.011Z,87.69
2023-01-21T05:13:44.903Z,87.58
2023-01-21T05:16:11.768Z,87.92
2023-01-21T05:18:39.518Z,87.35
2023-01-21T05:21:06.979Z,87.26
2023-01-21T05:23:33.877Z,88.13
2023-01-21T05:26:00.735Z,87.61
2023-01-21T05:28:27.494Z,87.61
2023-01-21T05:30:54.391Z,88.85
2023-01-21T05:33:26.152Z,87.56
2023-01-21T05:35:53.059Z,86.17
2023-01-21T05:38:19.798Z,86.97
2023-01-21T05:40:46.748Z,86.94
2023-01-21T05:43:13.541Z,86.45
2023-01-21T05:45:40.432Z,86.58
2023-01-21T05:48:07.265Z,86.25
2023-01-21T05:50:34.021Z,86.60
2023-01-21T05:53:00.756Z,85.99
2023-01-21T05:55:27.567Z,85.89
2023-01-21T05:57:54.442Z,86.73
2023-01-21T06:00:21.793Z,87.17
2023-01-21T06:02:48.566Z,87.11
2023-01-21T06:05:15.432Z,88.04
2023-01-21T06:07:42.286Z,88.15
2023-01-21T06:10:09.735Z,87.87
2023-01-21T06:12:36.511Z,87.52
2023-01-21T06:15:03.413Z,87.02
2023-01-21T06:17:30.187Z,87.98
2023-01-21T06:19:57.028Z,87.85
2023-01-21T06:22:23.845Z,87.78
2023-01-21T06:24:50.835Z,86.97
2023-01-21T06:27:17.610Z,87.72
2023-01-21T06:29:44.424Z,87.62
2023-01-21T06:32:11.274Z,87.68
2023-01-21T06:34:38.182Z,87.22
2023-01-21T06:37:05.129Z,87.88
2023-01-21T06:39:31.978Z,87.34
2023-01-21T06:41:58.786Z,87.83
2023-01-21T06:44:25.575Z,87.66
2023-01-21T06:47:00.672Z,87.93
2023-01-21T06:49:27.949Z,88.32
2023-01-21T06:51:56.284Z,87.83
2023-01-21T06:54:23.058Z,87.61
2023-01-21T06:56:49.887Z,87.94
2023-01-21T06:59:16.747Z,87.96
2023-01-21T07:01:43.526Z,87.73
2023-01-21T07:04:10.413Z,88.25
2023-01-21T07:06:37.684Z,88.23
2023-01-21T07:09:06.210Z,88.14
2023-01-21T07:11:33.363Z,87.65
2023-01-21T07:14:00.135Z,88.53
2023-01-21T07:16:27.470Z,87.95
2023-01-21T07:18:54.247Z,88.12
2023-01-21T07:21:21.018Z,88.33
2023-01-21T07:23:47.763Z,88.12
2023-01-21T07:26:15.091Z,88.11
2023-01-21T07:28:41.977Z,88.60
2023-01-21T07:31:09.491Z,88.89
2023-01-21T07:33:36.336Z,88.94
2023-01-21T07:36:03.383Z,89.68
2023-01-21T07:38:30.181Z,90.76
2023-01-21T07:40:57.010Z,91.35
2023-01-21T07:43:23.831Z,92.25
2023-01-21T07:45:50.713Z,91.40
2023-01-21T07:48:17.537Z,91.92
2023-01-21T07:50:44.379Z,92.14
2023-01-21T07:53:12.915Z,92.69
2023-01-21T07:55:39.792Z,91.91
2023-01-21T07:58:06.812Z,92.22
2023-01-21T08:00:33.571Z,93.06
2023-01-21T08:03:00.351Z,93.72
2023-01-21T08:05:27.503Z,93.28
2023-01-21T08:07:58.677Z,92.99
2023-01-21T08:10:26.269Z,92.73
2023-01-21T08:12:53.041Z,92.35
2023-01-21T08:15:19.982Z,92.66
2023-01-21T08:17:48.680Z,92.23
2023-01-21T08:20:15.517Z,93.42
2023-01-21T08:22:42.291Z,93.81
2023-01-21T08:25:09.704Z,94.65
2023-01-21T08:27:36.480Z,93.96
2023-01-21T08:30:03.519Z,94.01
2023-01-21T08:32:31.623Z,93.22
2023-01-21T08:34:58.509Z,93.71
2023-01-21T08:37:25.285Z,93.79
2023-01-21T08:39:52.061Z,94.28
2023-01-21T08:42:18.925Z,95.25
2023-01-21T08:44:46.356Z,96.36
2023-01-21T08:47:13.143Z,96.11
2023-01-21T08:49:39.959Z,96.47
2023-01-21T08:52:07.085Z,97.15
2023-01-21T08:54:33.971Z,99.11
2023-01-21T08:57:00.791Z,99.89
2023-01-21T08:59:28.886Z,100.00
2023-01-21T09:01:56.942Z,100.00
2023-01-21T09:04:23.783Z,100.00
2023-01-21T09:06:50.611Z,100.00
2023-01-21T09:09:17.515Z,100.00
2023-01-21T09:11:44.427Z,100.00
2023-01-21T09:14:11.310Z,100.00
2023-01-21T09:16:38.511Z,100.00
2023-01-21T09:19:05.357Z,100.00
2023-01-21T09:21:34.781Z,100.00
2023-01-21T09:24:02.729Z,100.00
2023-01-21T09:26:29.579Z,100.00
2023-01-21T09:28:59.479Z,100.00
2023-01-21T09:31:29.076Z,100.00
2023-01-21T09:33:59.948Z,100.00
2023-01-21T09:36:30.415Z,100.00
2023-01-21T09:38:57.841Z,100.00
2023-01-21T09:41:33.864Z,100.00
2023-01-21T09:44:14.622Z,100.00
2023-01-21T09:47:21.579Z,100.00
2023-01-21T09:49:53.622Z,100.00
2023-01-21T09:52:30.653Z,100.00
2023-01-21T09:54:58.653Z,100.00
2023-01-21T09:58:03.583Z,100.00
2023-01-21T10:00:37.198Z,100.00
2023-01-21T10:03:20.323Z,100.00
2023-01-21T10:06:13.257Z,100.00
2023-01-21T10:09:04.807Z,100.00
2023-01-21T10:11:40.338Z,100.00
2023-01-21T10:14:39.755Z,100.00
2023-01-21T10:17:43.687Z,100.00
2023-01-21T10:20:15.723Z,100.00
2023-01-21T10:23:07.971Z,100.00
2023-01-21T10:25:36.924Z,100.00
2023-01-21T10:28:32.657Z,100.00
2023-01-21T10:31:22.526Z,100.00
2023-01-21T10:33:49.504Z,100.00
2023-01-21T10:36:34.268Z,100.00
2023-01-21T10:39:25.840Z,100.00
2023-01-21T10:42:44.603Z,100.00
2023-01-21T10:45:47.563Z,100.00
2023-01-21T10:48:57.982Z,100.00
2023-01-21T10:51:47.353Z,100.00
2023-01-21T10:54:36.356Z,100.00
2023-01-21T10:57:30.940Z,100.00
2023-01-21T11:00:01.232Z,100.00
2023-01-21T11:02:33.764Z,100.00
2023-01-21T11:05:04.204Z,100.00
2023-01-21T11:07:39.919Z,100.00
2023-01-21T11:10:08.171Z,100.00
2023-01-21T11:12:35.160Z,100.00
2023-01-21T11:15:15.691Z,100.00
2023-01-21T11:17:46.762Z,100.00
2023-01-21T11:20:37.516Z,100.00
2023-01-21T11:23:06.056Z,100.00
2023-01-21T11:25:41.536Z,100.00
2023-01-21T11:28:26.812Z,100.00
2023-01-21T11:31:15.910Z,100.00
2023-01-21T11:33:43.945Z,100.00
2023-01-21T11:36:17.027Z,100.00
2023-01-21T11:38:47.232Z,100.00
2023-01-21T11:41:20.280Z,100.00
2023-01-21T11:43:50.657Z,100.00
2023-01-21T11:46:28.707Z,100.00
2023-01-21T11:49:15.559Z,100.00
2023-01-21T11:51:45.739Z,100.00
2023-01-21T11:54:23.362Z,100.00
2023-01-21T11:56:57.478Z,100.00
2023-01-21T11:59:34.674Z,100.00
2023-01-21T12:02:23.135Z,100.00
2023-01-21T12:05:04.627Z,100.00
2023-01-21T12:07:36.357Z,100.00
2023-01-21T12:10:12.049Z,100.00
2023-01-21T12:13:10.184Z,100.00
2023-01-21T12:16:16.998Z,100.00
2023-01-21T12:19:26.482Z,100.00
2023-01-21T12:22:02.029Z,100.00
2023-01-21T12:25:12.548Z,100.00
2023-01-21T12:28:13.275Z,100.00
2023-01-21T12:30:50.964Z,100.00
2023-01-21T12:33:46.203Z,100.00
2023-01-21T12:36:34.838Z,100.00
2023-01-21T12:39:22.278Z,100.00
2023-01-21T12:42:06.179Z,100.00
2023-01-21T12:44:47.434Z,100.00
2023-01-21T12:47:33.056Z,100.00
2023-01-21T12:50:41.144Z,100.00
2023-01-21T12:53:33.488Z,100.00
2023-01-21T12:56:28.950Z,100.00
2023-01-21T12:59:17.111Z,100.00
2023-01-21T13:02:05.396Z,100.00
2023-01-21T13:04:52.388Z,100.00
2023-01-21T13:07:50.849Z,100.00
2023-01-21T13:10:35.782Z,100.00
2023-01-21T13:13:18.382Z,100.00
2023-01-21T13:15:54.119Z,100.00
2023-01-21T13:18:33.133Z,100.00
2023-01-21T13:21:22.174Z,100.00
2023-01-21T13:24:00.037Z,100.00
2023-01-21T13:26:42.484Z,100.00
2023-01-21T13:29:33.274Z,100.00
2023-01-21T13:32:56.247Z,100.00
2023-01-21T13:35:33.873Z,100.00
2023-01-21T13:38:09.220Z,100.00
2023-01-21T13:40:41.218Z,100.00
2023-01-21T13:44:00.811Z,100.00
2023-01-21T13:46:54.975Z,100.00
2023-01-21T13:50:17.268Z,100.00
2023-01-21T13:53:18.282Z,100.00
2023-01-21T13:56:08.602Z,100.00
2023-01-21T13:58:49.139Z,100.00
2023-01-21T14:01:24.353Z,100.00
2023-01-21T14:04:19.960Z,100.00
2023-01-21T14:07:14.942Z,100.00
2023-01-21T14:09:55.362Z,100.00
2023-01-21T14:13:06.357Z,100.00
2023-01-21T14:16:02.796Z,100.00
2023-01-21T14:18:52.708Z,100.00
2023-01-21T14:21:53.587Z,100.00
2023-01-21T14:24:44.560Z,100.00
2023-01-21T14:27:46.845Z,100.00
2023-01-21T14:30:28.092Z,100.00
2023-01-21T14:33:01.322Z,100.00
2023-01-21T14:35:37.259Z,100.00
2023-01-21T14:38:29.900Z,100.00
2023-01-21T14:41:11.987Z,100.00
2023-01-21T14:43:40.317Z,100.00
2023-01-21T14:46:26.934Z,100.00
2023-01-21T14:49:08.301Z,100.00
2023-01-21T14:51:49.455Z,100.00
2023-01-21T14:54:25.592Z,100.00
2023-01-21T14:57:13.828Z,100.00
2023-01-21T14:59:46.210Z,100.00
2023-01-21T15:02:39.544Z,100.00
2023-01-21T15:05:10.316Z,100.00
2023-01-21T15:07:44.961Z,100.00
2023-01-21T15:10:34.677Z,100.00
2023-01-21T15:13:06.750Z,100.00
2023-01-21T15:16:02.684Z,100.00
2023-01-21T15:18:45.216Z,100.00
2023-01-21T15:21:46.036Z,100.00
2023-01-21T15:24:35.640Z,100.00
2023-01-21T15:27:12.404Z,100.00
2023-01-21T15:29:44.427Z,100.00
2023-01-21T15:32:36.405Z,99.93
2023-01-21T15:35:30.553Z,100.00
2023-01-21T15:38:12.914Z,99.44
2023-01-21T15:40:54.342Z,97.61
2023-01-21T15:43:44.077Z,98.01
2023-01-21T15:46:49.722Z,99.27
2023-01-21T15:49:49.615Z,100.00
2023-01-21T15:52:53.612Z,100.00
2023-01-21T15:55:44.590Z,99.67
2023-01-21T15:58:47.721Z,99.64
2023-01-21T16:01:26.603Z,99.70
2023-01-21T16:04:30.649Z,98.18
2023-01-21T16:07:28.520Z,98.51
2023-01-21T16:10:22.407Z,98.76
2023-01-21T16:13:10.185Z,98.07
2023-01-21T16:16:10.135Z,96.87
2023-01-21T16:18:59.289Z,97.13
2023-01-21T16:21:33.769Z,95.41
2023-01-21T16:24:24.852Z,95.37
2023-01-21T16:26:51.804Z,96.94
2023-01-21T16:29:18.616Z,97.17
2023-01-21T16:32:01.413Z,97.89
2023-01-21T16:34:30.897Z,97.84
2023-01-21T16:36:58.159Z,98.41
2023-01-21T16:39:25.898Z,97.32
2023-01-21T16:42:04.843Z,96.98
2023-01-21T16:44:36.054Z,97.54
2023-01-21T16:47:03.313Z,97.38
2023-01-21T16:49:30.202Z,97.25
2023-01-21T16:52:02.892Z,97.10
2023-01-21T16:54:34.920Z,96.84
2023-01-21T16:57:25.923Z,97.12
2023-01-21T16:59:55.845Z,96.74
2023-01-21T17:02:31.482Z,97.40
2023-01-21T17:05:02.136Z,96.95
2023-01-21T17:07:45.043Z,96.28
2023-01-21T17:10:25.003Z,96.64
2023-01-21T17:13:01.486Z,96.19
2023-01-21T17:15:39.208Z,96.81
2023-01-21T17:18:40.533Z,96.05
2023-01-21T17:21:08.671Z,95.73
2023-01-21T17:24:01.527Z,95.96
2023-01-21T17:26:34.041Z,96.36
2023-01-21T17:29:32.181Z,96.52
2023-01-21T17:32:00.278Z,96.71
2023-01-21T17:34:30.846Z,96.92
2023-01-21T17:36:58.165Z,97.08
2023-01-21T17:39:48.000Z,97.67
2023-01-21T17:42:39.590Z,97.45
2023-01-21T17:45:07.241Z,97.53
2023-01-21T17:47:54.493Z,97.26
2023-01-21T17:50:31.586Z,97.51
2023-01-21T17:53:09.447Z,97.55
2023-01-21T17:55:40.417Z,98.30
2023-01-21T17:58:31.880Z,98.91
2023-01-21T18:01:03.892Z,98.17
2023-01-21T18:03:30.774Z,99.13
2023-01-21T18:05:58.050Z,99.28
2023-01-21T18:08:24.978Z,98.47
2023-01-21T18:10:52.040Z,98.79
2023-01-21T18:13:20.784Z,99.06
2023-01-21T18:15:51.355Z,99.51
2023-01-21T18:18:27.361Z,99.28
2023-01-21T18:20:54.707Z,98.77
2023-01-21T18:23:21.826Z,99.12
2023-01-21T18:25:53.631Z,99.26
2023-01-21T18:28:26.926Z,99.93
2023-01-21T18:30:56.691Z,99.79
2023-01-21T18:33:24.902Z,99.87
2023-01-21T18:35:52.949Z,100.00
2023-01-21T18:38:27.351Z,100.00
2023-01-21T18:40:55.815Z,100.00
2023-01-21T18:43:26.080Z,100.00
2023-01-21T18:45:54.479Z,100.00
2023-01-21T18:48:28.174Z,100.00
2023-01-21T18:50:55.351Z,100.00
2023-01-21T18:53:22.373Z,100.00
2023-01-21T18:55:53.593Z,100.00
2023-01-21T18:58:20.606Z,100.00
2023-01-21T19:00:47.963Z,100.00
2023-01-21T19:03:15.558Z,100.00
2023-01-21T19:05:45.353Z,100.00
2023-01-21T19:08:16.960Z,100.00
2023-01-21T19:10:43.964Z,100.00
2023-01-21T19:13:12.008Z,100.00
2023-01-21T19:15:38.855Z,100.00
2023-01-21T19:18:13.876Z,100.00
2023-01-21T19:20:41.552Z,100.00
2023-01-21T19:23:18.207Z,100.00
2023-01-21T19:25:55.414Z,100.00
2023-01-21T19:28:23.424Z,100.00
2023-01-21T19:30:55.066Z,100.00
2023-01-21T19:33:23.456Z,100.00
2023-01-21T19:36:20.308Z,100.00
2023-01-21T19:38:54.169Z,100.00
2023-01-21T19:41:21.056Z,100.00
2023-01-21T19:43:47.872Z,100.00
2023-01-21T19:46:14.763Z,100.00
2023-01-21T19:48:41.888Z,100.00
2023-01-21T19:51:08.817Z,100.00
2023-01-21T19:53:36.129Z,100.00
2023-01-21T19:56:05.285Z,100.00
2023-01-21T19:58:32.899Z,100.00
2023-01-21T20:00:59.885Z,100.00
2023-01-21T20:03:29.021Z,100.00
2023-01-21T20:06:04.186Z,100.00
2023-01-21T20:08:33.002Z,100.00
2023-01-21T20:10:59.823Z,100.00
2023-01-21T20:13:31.049Z,100.00
2023-01-21T20:16:03.551Z,100.00
2023-01-21T20:18:33.088Z,100.00
2023-01-21T20:20:59.969Z,100.00
2023-01-21T20:23:26.833Z,100.00
2023-01-21T20:25:59.161Z,100.00
2023-01-21T20:28:35.885Z,100.00
2023-01-21T20:31:06.329Z,100.00
2023-01-21T20:33:34.615Z,100.00
2023-01-21T20:36:03.497Z,100.00
2023-01-21T20:38:34.043Z,100.00
2023-01-21T20:41:02.639Z,100.00
2023-01-21T20:43:29.621Z,100.00
2023-01-21T20:46:01.677Z,100.00
2023-01-21T20:48:35.710Z,100.00
2023-01-21T20:51:03.378Z,100.00
2023-01-21T20:53:30.762Z,100.00
2023-01-21T20:56:00.330Z,100.00
2023-01-21T20:58:28.040Z,100.00
2023-01-21T21:00:55.451Z,100.00
2023-01-21T21:03:22.396Z,100.00
2023-01-21T21:05:49.668Z,100.00
2023-01-21T21:08:21.203Z,100.00
2023-01-21T21:10:50.554Z,100.00
2023-01-21T21:13:17.353Z,100.00
2023-01-21T21:15:46.513Z,100.00
2023-01-21T21:18:14.433Z,100.00
2023-01-21T21:20:42.060Z,100.00
2023-01-21T21:23:16.230Z,100.00
2023-01-21T21:25:47.298Z,100.00
2023-01-21T21:28:17.112Z,100.00
2023-01-21T21:30:44.810Z,100.00
2023-01-21T21:33:19.560Z,100.00
2023-01-21T21:35:46.919Z,100.00
2023-01-21T21:38:21.697Z,100.00
2023-01-21T21:40:52.852Z,100.00
2023-01-21T21:43:35.328Z,100.00
2023-01-21T21:46:28.148Z,100.00
2023-01-21T21:48:54.970Z,100.00
2023-01-21T21:51:22.516Z,100.00
2023-01-21T21:53:50.107Z,100.00
2023-01-21T21:56:21.436Z,100.00
2023-01-21T21:58:50.140Z,100.00
2023-01-21T22:01:23.860Z,100.00
2023-01-21T22:03:51.831Z,100.00
2023-01-21T22:06:21.154Z,100.00
2023-01-21T22:08:49.133Z,100.00
2023-01-21T22:11:19.960Z,100.00
2023-01-21T22:13:50.010Z,100.00
2023-01-21T22:16:24.102Z,100.00
2023-01-21T22:18:52.530Z,100.00
2023-01-21T22:21:23.593Z,100.00
2023-01-21T22:23:50.724Z,100.00
2023-01-21T22:26:21.230Z,100.00
2023-01-21T22:28:48.466Z,100.00
2023-01-21T22:31:21.650Z,100.00
2023-01-21T22:33:48.901Z,100.00
2023-01-21T22:36:19.107Z,100.00
2023-01-21T22:38:46.717Z,100.00
2023-01-21T22:41:16.529Z,100.00
2023-01-21T22:43:45.189Z,100.00
2023-01-21T22:46:15.263Z,100.00
2023-01-21T22:48:42.389Z,100.00
2023-01-21T22:51:12.910Z,100.00
2023-01-21T22:53:40.191Z,100.00
2023-01-21T22:56:07.918Z,100.00
2023-01-21T22:58:35.451Z,100.00
2023-01-21T23:01:02.650Z,100.00
2023-01-21T23:03:30.120Z,100.00
2023-01-21T23:06:08.137Z,100.00
2023-01-21T23:08:37.146Z,100.00
2023-01-21T23:11:06.854Z,100.00
2023-01-21T23:13:34.473Z,100.00
2023-01-21T23:16:01.607Z,100.00
2023-01-21T23:18:29.523Z,100.00
2023-01-21T23:20:56.740Z,100.00
2023-01-21T23:23:24.678Z,100.00
2023-01-21T23:25:51.908Z,100.00
2023-01-21T23:28:18.681Z,100.00
2023-01-21T23:30:46.606Z,100.00
2023-01-21T23:33:13.509Z,100.00
2023-01-21T23:35:40.279Z,100.00
2023-01-21T23:38:07.097Z,100.00
2023-01-21T23:40:34.000Z,100.00
2023-01-21T23:43:00.792Z,100.00
2023-01-21T23:45:27.709Z,100.00
2023-01-21T23:47:55.075Z,100.00
2023-01-21T23:50:22.067Z,100.00
2023-01-21T23:52:48.817Z,100.00
2023-01-21T23:55:15.648Z,100.00
2023-01-21T23:57:42.407Z,100.00
